Time;durP1;ratioP1;P1;durP2;ratioP2;P2;SDS_P1;SDS_P2;PMS_P1;PMS_P2;Temp;Humidity;BMP_temperature;BMP_pressure;BME280_temperature;BME280_humidity;BME280_pressure;Samples;Min_cycle;Max_cycle;Signal;HPM_P1;HPM_P2
2021/03/03 00:01:24;;;;;;;23.57;18.23;;;7.30;92.10;;;;;;10548617;28;20264;-80
2021/03/03 00:06:25;;;;;;;22.83;17.23;;;7.20;92.20;;;;;;10555271;28;20245;-80
2021/03/03 00:11:28;;;;;;;24.30;18.30;;;7.20;92.50;;;;;;10559386;28;20754;-80
2021/03/03 00:16:29;;;;;;;24.07;18.30;;;7.20;92.40;;;;;;10553134;28;20223;-80
2021/03/03 00:21:32;;;;;;;24.07;17.40;;;7.10;92.50;;;;;;10559900;28;20219;-80
2021/03/03 00:26:34;;;;;;;22.23;17.50;;;7.10;92.40;;;;;;10552247;28;20199;-80
2021/03/03 00:31:36;;;;;;;23.53;15.87;;;7.00;92.40;;;;;;10536535;28;20236;-80
2021/03/03 00:36:38;;;;;;;20.63;15.80;;;7.00;92.40;;;;;;10548370;28;20212;-80
2021/03/03 00:41:40;;;;;;;22.63;15.63;;;7.00;92.40;;;;;;10528923;28;20216;-80
2021/03/03 00:46:42;;;;;;;23.77;16.07;;;6.90;92.70;;;;;;10525840;28;20199;-80
2021/03/03 00:51:45;;;;;;;24.57;17.20;;;6.90;92.70;;;;;;10524289;28;20585;-80
2021/03/03 00:56:48;;;;;;;18.17;14.93;;;6.80;92.70;;;;;;10530505;28;20589;-80
2021/03/03 01:01:50;;;;;;;24.53;17.57;;;6.80;92.80;;;;;;10527540;28;20226;-80
2021/03/03 01:06:52;;;;;;;20.17;16.23;;;6.90;92.80;;;;;;10527153;28;20238;-80
2021/03/03 01:11:56;;;;;;;21.53;16.80;;;6.90;92.50;;;;;;10524647;28;20299;-80
2021/03/03 01:16:59;;;;;;;21.13;16.80;;;6.90;92.80;;;;;;10567454;28;20298;-80
2021/03/03 01:22:13;;;;;;;20.17;16.10;;;6.80;92.80;;;;;;10525857;28;20247;-80
2021/03/03 01:27:15;;;;;;;19.60;15.37;;;6.90;92.80;;;;;;10542142;28;20200;-80
2021/03/03 01:32:17;;;;;;;24.20;17.07;;;6.80;92.50;;;;;;10540185;28;20212;-80
2021/03/03 01:37:18;;;;;;;23.50;16.53;;;6.80;92.80;;;;;;10524630;28;20310;-80
2021/03/03 01:42:21;;;;;;;24.97;15.33;;;6.80;92.70;;;;;;10547305;28;20215;-80
2021/03/03 01:47:22;;;;;;;27.63;15.63;;;6.80;92.60;;;;;;10543949;28;20210;-80
2021/03/03 01:52:24;;;;;;;19.00;15.23;;;6.80;92.50;;;;;;10544647;28;20222;-81
2021/03/03 01:57:27;;;;;;;19.27;15.33;;;6.80;92.70;;;;;;10545916;28;20585;-80
2021/03/03 02:02:29;;;;;;;17.63;14.27;;;6.80;92.60;;;;;;10549587;22;20220;-78
2021/03/03 02:07:41;;;;;;;19.53;15.97;;;6.70;92.60;;;;;;10533478;28;20613;-82
2021/03/03 02:12:48;;;;;;;24.93;16.27;;;6.70;92.80;;;;;;10535401;28;20686;-80
2021/03/03 02:17:52;;;;;;;23.37;15.40;;;6.70;92.90;;;;;;10541877;28;20204;-79
2021/03/03 02:23:11;;;;;;;17.83;14.70;;;6.70;92.70;;;;;;10522062;28;20427;-78
2021/03/03 02:28:14;;;;;;;25.20;14.97;;;6.60;92.60;;;;;;10535016;28;20203;-79
2021/03/03 02:33:21;;;;;;;20.10;14.17;;;6.60;92.60;;;;;;10534814;28;20222;-77
2021/03/03 02:38:23;;;;;;;17.47;15.00;;;6.50;92.70;;;;;;10533875;28;20225;-80
2021/03/03 02:43:27;;;;;;;21.03;15.50;;;6.50;92.80;;;;;;10536780;28;20273;-79
2021/03/03 02:48:28;;;;;;;24.30;14.47;;;6.50;92.80;;;;;;10516783;28;20196;-79
2021/03/03 02:53:30;;;;;;;16.17;12.63;;;6.50;92.80;;;;;;10516807;28;20234;-77
2021/03/03 02:58:33;;;;;;;19.17;15.23;;;6.50;92.90;;;;;;10534837;28;20607;-77
2021/03/03 03:03:40;;;;;;;20.40;15.33;;;6.50;92.70;;;;;;10533504;28;20228;-77
2021/03/03 03:08:44;;;;;;;23.77;15.53;;;6.50;93.00;;;;;;10535147;28;20198;-77
2021/03/03 03:13:48;;;;;;;17.47;14.07;;;6.50;92.70;;;;;;10534368;28;20227;-81
2021/03/03 03:18:55;;;;;;;20.97;15.23;;;6.40;92.80;;;;;;10537598;28;20208;-79
2021/03/03 03:23:59;;;;;;;21.33;14.23;;;6.40;93.20;;;;;;10517864;28;20239;-79
2021/03/03 03:29:03;;;;;;;22.17;14.87;;;6.40;92.80;;;;;;10526264;28;20197;-81
2021/03/03 03:34:06;;;;;;;20.67;16.13;;;6.40;92.70;;;;;;10537723;28;20223;-79
2021/03/03 03:39:09;;;;;;;22.37;15.83;;;6.40;93.00;;;;;;10539028;28;20253;-80
2021/03/03 03:44:13;;;;;;;22.23;15.77;;;6.40;92.90;;;;;;10542102;28;20368;-77
2021/03/03 03:49:18;;;;;;;23.30;17.07;;;6.40;92.90;;;;;;10532298;28;20699;-79
2021/03/03 03:54:19;;;;;;;21.30;15.60;;;6.30;92.90;;;;;;10540743;28;20223;-77
2021/03/03 03:59:21;;;;;;;21.50;16.13;;;6.30;93.00;;;;;;10542196;28;20196;-79
2021/03/03 04:04:23;;;;;;;25.10;16.30;;;6.30;93.20;;;;;;10532878;28;20220;-80
2021/03/03 04:09:25;;;;;;;26.77;18.03;;;6.30;93.20;;;;;;10541915;28;20617;-80
2021/03/03 04:14:27;;;;;;;24.57;16.07;;;6.30;93.00;;;;;;10542189;28;20228;-77
2021/03/03 04:19:29;;;;;;;21.10;15.60;;;6.40;93.10;;;;;;10540878;28;20196;-81
2021/03/03 04:24:30;;;;;;;21.97;15.07;;;6.40;93.10;;;;;;10523736;28;20215;-77
2021/03/03 04:29:33;;;;;;;22.20;16.10;;;6.30;93.00;;;;;;10539873;28;20564;-77
2021/03/03 04:34:34;;;;;;;19.37;16.03;;;6.30;93.20;;;;;;10540205;28;20223;-78
2021/03/03 04:39:36;;;;;;;20.80;15.40;;;6.30;93.30;;;;;;10537469;28;20222;-79
2021/03/03 04:44:38;;;;;;;18.30;14.70;;;6.20;93.00;;;;;;10538266;28;20226;-81
2021/03/03 04:49:40;;;;;;;20.47;16.10;;;6.20;93.30;;;;;;10522253;28;20200;-80
2021/03/03 04:54:41;;;;;;;20.23;15.77;;;6.20;93.30;;;;;;10541627;28;20224;-81
2021/03/03 04:59:44;;;;;;;19.97;16.40;;;6.20;93.40;;;;;;10540946;28;20538;-78
2021/03/03 05:04:45;;;;;;;22.70;17.40;;;6.20;93.10;;;;;;10536812;28;20216;-77
2021/03/03 05:09:47;;;;;;;22.40;17.53;;;6.10;93.20;;;;;;10537587;28;20283;-79
2021/03/03 05:14:49;;;;;;;18.87;15.87;;;6.10;93.50;;;;;;10537341;28;20649;-79
2021/03/03 05:19:51;;;;;;;24.43;15.23;;;6.10;93.50;;;;;;10539282;28;20223;-82
2021/03/03 05:24:53;;;;;;;21.13;15.60;;;6.20;93.50;;;;;;10526313;28;20243;-81
2021/03/03 05:29:55;;;;;;;21.93;16.50;;;6.30;93.40;;;;;;10538322;28;20196;-78
2021/03/03 05:34:57;;;;;;;20.57;17.00;;;6.30;93.40;;;;;;10536957;28;20216;-80
2021/03/03 05:39:58;;;;;;;27.10;18.87;;;6.40;93.40;;;;;;10543250;28;20260;-77
2021/03/03 05:45:01;;;;;;;25.83;18.50;;;6.40;93.10;;;;;;10528991;28;20240;-76
2021/03/03 05:50:04;;;;;;;23.00;17.90;;;6.40;93.20;;;;;;10501898;28;20196;-77
2021/03/03 05:55:07;;;;;;;24.40;18.17;;;6.40;93.20;;;;;;10526755;28;20276;-76
2021/03/03 06:00:11;;;;;;;28.93;19.37;;;6.40;93.10;;;;;;10537023;28;20196;-77
2021/03/03 06:05:14;;;;;;;26.63;19.10;;;6.40;93.20;;;;;;10536273;28;20600;-77
2021/03/03 06:10:16;;;;;;;22.40;17.53;;;6.30;93.20;;;;;;10521760;28;21080;-78
2021/03/03 06:15:18;;;;;;;20.93;18.20;;;6.30;93.20;;;;;;10506368;28;20618;-79
2021/03/03 06:20:20;;;;;;;25.40;19.17;;;6.30;93.10;;;;;;10517269;28;20201;-79
2021/03/03 06:25:23;;;;;;;26.67;18.77;;;6.30;93.20;;;;;;10518687;28;20215;-78
2021/03/03 06:30:30;;;;;;;18.57;16.23;;;6.30;93.30;;;;;;10522872;28;20192;-77
2021/03/03 06:35:35;;;;;;;20.90;16.70;;;6.30;93.50;;;;;;10514267;28;20222;-76
2021/03/03 06:40:50;;;;;;;25.60;17.77;;;6.40;93.40;;;;;;10524774;28;20218;-76
2021/03/03 06:45:53;;;;;;;21.63;17.50;;;6.40;93.40;;;;;;10523076;28;20192;-78
2021/03/03 06:50:55;;;;;;;19.93;16.70;;;6.50;93.30;;;;;;10525493;28;20699;-79
2021/03/03 06:55:56;;;;;;;20.20;17.60;;;6.60;93.30;;;;;;10532155;28;20220;-76
2021/03/03 07:00:59;;;;;;;20.57;16.80;;;6.70;93.20;;;;;;10531938;28;20227;-78
2021/03/03 07:06:01;;;;;;;17.87;15.93;;;6.80;93.00;;;;;;10536293;28;20202;-77
2021/03/03 07:11:19;;;;;;;20.10;16.63;;;6.90;93.30;;;;;;10541167;28;20212;-76
2021/03/03 07:16:22;;;;;;;21.47;17.50;;;6.90;93.10;;;;;;10524404;28;20215;-76
2021/03/03 07:21:36;;;;;;;19.70;16.60;;;7.10;92.90;;;;;;10540784;28;20629;-80
2021/03/03 07:26:38;;;;;;;20.60;17.30;;;7.20;92.80;;;;;;10541484;28;20567;-77
2021/03/03 07:31:41;;;;;;;22.13;17.77;;;7.30;92.70;;;;;;10540916;28;20304;-78
2021/03/03 07:36:48;;;;;;;20.70;17.33;;;7.50;92.60;;;;;;10539849;28;20257;-76
2021/03/03 07:41:50;;;;;;;21.83;16.30;;;7.60;92.60;;;;;;10540522;28;20224;-80
2021/03/03 07:46:52;;;;;;;22.30;17.03;;;7.70;92.50;;;;;;10531372;28;20231;-78
2021/03/03 07:51:56;;;;;;;24.87;18.97;;;7.80;92.60;;;;;;10540343;28;20212;-80
2021/03/03 07:56:59;;;;;;;23.53;17.97;;;8.00;92.20;;;;;;10540420;28;20683;-77
2021/03/03 08:02:01;;;;;;;25.03;17.97;;;8.20;92.10;;;;;;10539199;28;20332;-80
2021/03/03 08:07:17;;;;;;;22.47;17.03;;;8.30;91.80;;;;;;10537315;28;20547;-79
2021/03/03 08:12:19;;;;;;;22.83;17.07;;;8.50;91.50;;;;;;10525886;28;20217;-80
2021/03/03 08:17:26;;;;;;;22.50;16.43;;;8.60;91.20;;;;;;10523387;28;20227;-79
2021/03/03 08:22:48;;;;;;;24.43;17.80;;;8.80;91.30;;;;;;10526634;28;21060;-78
2021/03/03 08:27:49;;;;;;;23.53;17.60;;;8.90;90.90;;;;;;10524767;28;20218;-80
2021/03/03 08:32:52;;;;;;;23.70;16.83;;;9.10;90.90;;;;;;10527523;28;20228;-76
2021/03/03 08:38:16;;;;;;;24.70;17.87;;;9.20;90.30;;;;;;10519860;28;20722;-78
2021/03/03 08:43:33;;;;;;;26.33;16.70;;;9.30;90.20;;;;;;10530697;28;20219;-81
2021/03/03 08:48:36;;;;;;;19.57;16.10;;;9.40;89.90;;;;;;10536097;28;20203;-80
2021/03/03 08:53:49;;;;;;;26.03;17.20;;;9.50;89.70;;;;;;10538249;28;20707;-78
2021/03/03 08:58:51;;;;;;;24.60;17.53;;;9.60;90.00;;;;;;10532961;28;20203;-76
2021/03/03 09:04:02;;;;;;;22.03;16.43;;;9.80;89.50;;;;;;10535729;28;20625;-75
2021/03/03 09:09:04;;;;;;;25.37;16.23;;;9.90;89.40;;;;;;10521135;28;20204;-78
2021/03/03 09:14:06;;;;;;;20.17;16.20;;;10.00;87.30;;;;;;10519435;28;20216;-77
2021/03/03 09:19:10;;;;;;;20.10;14.83;;;10.10;87.10;;;;;;10536926;28;20200;-77
2021/03/03 09:24:14;;;;;;;24.40;19.40;;;10.20;86.60;;;;;;10530058;28;20265;-78
2021/03/03 09:29:26;;;;;;;19.77;16.43;;;10.30;86.00;;;;;;10532372;28;20198;-80
2021/03/03 09:34:29;;;;;;;22.33;17.20;;;10.50;86.10;;;;;;10529149;28;20302;-80
2021/03/03 09:39:31;;;;;;;24.40;16.73;;;10.50;86.30;;;;;;10538841;28;20203;-79
2021/03/03 09:44:47;;;;;;;19.43;15.10;;;10.60;86.90;;;;;;10535060;28;20211;-80
2021/03/03 09:49:50;;;;;;;22.50;16.83;;;10.60;86.10;;;;;;10522527;28;20613;-79
2021/03/03 09:54:51;;;;;;;21.60;17.73;;;10.70;86.10;;;;;;10522914;28;20257;-81
2021/03/03 09:59:56;;;;;;;25.83;18.47;;;10.80;85.50;;;;;;10528532;28;20492;-79
2021/03/03 10:04:59;;;;;;;21.90;17.40;;;10.90;86.00;;;;;;10520790;28;20233;-78
2021/03/03 10:10:03;;;;;;;25.27;18.93;;;11.10;86.00;;;;;;10526376;28;20247;-80
2021/03/03 10:15:07;;;;;;;24.67;16.83;;;11.20;84.50;;;;;;10528702;28;20219;-80
2021/03/03 10:20:29;;;;;;;23.20;17.20;;;11.30;84.90;;;;;;10519056;28;20664;-82
2021/03/03 10:25:34;;;;;;;25.43;18.40;;;11.40;84.30;;;;;;10520883;28;20215;-81
2021/03/03 10:30:37;;;;;;;25.57;18.03;;;11.50;84.60;;;;;;10508967;28;20224;-81
2021/03/03 10:35:48;;;;;;;22.40;17.00;;;11.60;84.80;;;;;;10524188;28;20244;-82
2021/03/03 10:40:51;;;;;;;19.80;15.90;;;11.70;84.40;;;;;;10527871;28;20231;-81
2021/03/03 10:46:08;;;;;;;19.80;16.87;;;11.80;84.40;;;;;;10533399;28;20188;-81
2021/03/03 10:51:12;;;;;;;23.90;18.23;;;11.90;84.30;;;;;;10545611;28;20597;-82
2021/03/03 10:56:22;;;;;;;23.23;15.70;;;12.00;82.80;;;;;;10542851;28;20276;-80
2021/03/03 11:01:25;;;;;;;24.33;16.60;;;12.10;83.60;;;;;;10548810;28;20741;-82
2021/03/03 11:06:29;;;;;;;23.87;17.57;;;12.20;83.10;;;;;;10530411;28;20184;-82
2021/03/03 11:11:31;;;;;;;24.80;16.43;;;12.30;81.60;;;;;;10533048;28;20223;-81
2021/03/03 11:16:32;;;;;;;19.50;16.60;;;12.40;82.70;;;;;;10524361;28;20234;-79
2021/03/03 11:21:35;;;;;;;23.53;19.17;;;12.40;83.40;;;;;;10532841;28;20216;-79
2021/03/03 11:26:37;;;;;;;20.37;17.87;;;12.50;82.40;;;;;;10540314;28;20206;-85
2021/03/03 11:31:40;;;;;;;22.73;17.73;;;12.60;82.00;;;;;;10535453;28;20224;-78
2021/03/03 11:36:42;;;;;;;19.60;17.07;;;12.60;81.30;;;;;;10513491;28;20531;-77
2021/03/03 11:41:44;;;;;;;23.63;16.93;;;12.60;82.20;;;;;;10513714;28;20826;-76
2021/03/03 11:46:45;;;;;;;21.53;16.43;;;12.60;81.60;;;;;;10513550;28;20282;-77
2021/03/03 11:51:48;;;;;;;21.40;17.23;;;12.70;82.30;;;;;;10509994;28;20255;-79
2021/03/03 11:56:50;;;;;;;21.87;17.57;;;12.70;82.50;;;;;;10512128;28;20216;-77
2021/03/03 12:01:53;;;;;;;20.40;16.10;;;12.80;82.70;;;;;;10516602;28;20232;-79
2021/03/03 12:06:55;;;;;;;22.93;16.93;;;12.80;81.60;;;;;;10521661;28;20291;-80
2021/03/03 12:11:57;;;;;;;27.23;19.20;;;12.80;82.10;;;;;;10530525;28;20981;-78
2021/03/03 12:16:58;;;;;;;25.13;19.50;;;12.90;82.10;;;;;;10528063;28;20597;-76
2021/03/03 12:22:01;;;;;;;26.57;18.50;;;12.80;81.80;;;;;;10537990;28;20280;-77
2021/03/03 12:27:02;;;;;;;23.97;18.27;;;12.90;82.40;;;;;;10526990;28;20616;-78
2021/03/03 12:32:05;;;;;;;24.00;16.90;;;12.90;83.30;;;;;;10521165;28;20219;-78
2021/03/03 12:37:08;;;;;;;21.57;17.13;;;12.90;83.00;;;;;;10520458;28;20637;-77
2021/03/03 12:42:09;;;;;;;24.77;18.47;;;13.00;84.10;;;;;;10510660;28;20223;-78
2021/03/03 12:47:11;;;;;;;19.80;16.50;;;13.00;83.10;;;;;;10528699;28;20555;-80
2021/03/03 12:52:14;;;;;;;24.00;18.40;;;13.00;82.70;;;;;;10528717;28;20696;-75
2021/03/03 12:57:15;;;;;;;21.00;17.53;;;13.10;83.30;;;;;;10529715;28;20243;-78
2021/03/03 13:02:17;;;;;;;22.30;17.00;;;13.20;83.10;;;;;;10527603;28;20633;-80
2021/03/03 13:07:19;;;;;;;21.37;16.90;;;13.20;83.20;;;;;;10523152;28;20394;-78
2021/03/03 13:12:21;;;;;;;33.80;18.97;;;13.20;83.60;;;;;;10530436;28;20574;-78
2021/03/03 13:17:23;;;;;;;25.20;19.30;;;13.20;82.90;;;;;;10517096;28;20295;-77
2021/03/03 13:22:25;;;;;;;24.83;18.63;;;13.30;82.50;;;;;;10515188;28;20648;-78
2021/03/03 13:27:27;;;;;;;29.23;19.20;;;13.20;83.70;;;;;;10522024;28;20196;-77
2021/03/03 13:32:32;;;;;;;29.47;19.00;;;13.20;83.40;;;;;;10533138;28;20250;-79
2021/03/03 13:37:34;;;;;;;27.47;19.07;;;13.20;83.80;;;;;;10538862;28;20216;-80
2021/03/03 13:42:36;;;;;;;28.70;19.80;;;13.20;85.20;;;;;;10541501;28;20254;-79
2021/03/03 13:47:38;;;;;;;25.33;19.03;;;13.20;83.50;;;;;;10543225;28;20188;-81
2021/03/03 13:52:40;;;;;;;24.87;19.67;;;13.20;84.10;;;;;;10525909;28;20359;-79
2021/03/03 13:57:43;;;;;;;24.80;18.53;;;13.20;83.00;;;;;;10542424;28;20288;-79
2021/03/03 14:02:46;;;;;;;26.57;19.77;;;13.20;83.20;;;;;;10559775;22;20228;-79
2021/03/03 14:07:49;;;;;;;25.47;19.40;;;13.20;84.80;;;;;;10534162;28;20196;-79
2021/03/03 14:12:51;;;;;;;32.13;20.67;;;13.10;85.30;;;;;;10523998;28;20638;-79
2021/03/03 14:17:52;;;;;;;27.50;19.67;;;13.10;84.90;;;;;;10531224;28;20227;-78
2021/03/03 14:22:55;;;;;;;26.33;19.87;;;13.10;85.20;;;;;;10528259;28;20273;-78
2021/03/03 14:27:59;;;;;;;28.97;21.63;;;13.00;86.90;;;;;;10538862;28;20192;-80
2021/03/03 14:33:00;;;;;;;29.57;20.47;;;13.00;86.10;;;;;;10508118;28;20242;-79
2021/03/03 14:38:03;;;;;;;29.53;20.30;;;12.90;85.60;;;;;;10513612;28;20234;-79
2021/03/03 14:43:04;;;;;;;25.90;19.23;;;12.90;86.00;;;;;;10513289;28;20238;-78
2021/03/03 14:48:07;;;;;;;26.70;18.80;;;12.80;86.60;;;;;;10512280;28;20250;-79
2021/03/03 14:53:10;;;;;;;24.43;15.83;;;12.70;86.30;;;;;;10526265;28;20242;-79
2021/03/03 14:58:11;;;;;;;24.00;12.20;;;12.70;86.70;;;;;;10519585;28;20226;-79
2021/03/03 15:03:13;;;;;;;19.47;12.00;;;12.70;80.10;;;;;;10534213;28;20276;-79
2021/03/03 15:08:15;;;;;;;15.03;10.80;;;12.70;75.50;;;;;;10534704;28;20236;-78
2021/03/03 15:13:17;;;;;;;18.33;12.37;;;12.90;73.30;;;;;;10520207;28;20243;-78
2021/03/03 15:18:19;;;;;;;19.20;11.67;;;13.10;70.90;;;;;;10521118;28;20234;-79
2021/03/03 15:23:21;;;;;;;18.80;12.30;;;13.20;70.80;;;;;;10519538;28;20671;-78
2021/03/03 15:28:23;;;;;;;21.00;12.70;;;13.30;69.90;;;;;;10520534;28;20199;-78
2021/03/03 15:33:25;;;;;;;21.10;12.40;;;13.40;69.10;;;;;;10507642;28;20211;-78
2021/03/03 15:38:27;;;;;;;16.80;10.80;;;13.40;71.10;;;;;;10520162;28;20215;-78
2021/03/03 15:43:28;;;;;;;16.53;11.70;;;13.30;75.00;;;;;;10529456;28;20303;-78
2021/03/03 15:48:30;;;;;;;14.60;11.50;;;13.20;75.10;;;;;;10531549;28;20204;-79
2021/03/03 15:53:33;;;;;;;17.10;11.33;;;13.00;73.50;;;;;;10536938;28;20216;-78
2021/03/03 15:58:34;;;;;;;31.23;22.40;;;12.90;76.40;;;;;;10521384;28;20219;-79
2021/03/03 16:03:36;;;;;;;21.43;15.60;;;12.80;75.60;;;;;;10524448;28;20237;-79
2021/03/03 16:08:38;;;;;;;17.73;11.90;;;12.80;76.80;;;;;;10536697;28;20656;-79
2021/03/03 16:13:40;;;;;;;16.53;12.27;;;12.70;75.60;;;;;;10511683;28;20243;-79
2021/03/03 16:18:42;;;;;;;17.03;11.80;;;12.70;78.50;;;;;;10521708;28;20222;-78
2021/03/03 16:23:44;;;;;;;21.07;12.70;;;12.60;80.30;;;;;;10553204;28;20229;-79
2021/03/03 16:28:46;;;;;;;23.13;13.90;;;12.50;81.20;;;;;;10537583;28;20695;-78
2021/03/03 16:33:47;;;;;;;20.97;14.17;;;12.40;82.30;;;;;;10538013;28;20659;-79
2021/03/03 16:38:51;;;;;;;24.37;18.57;;;12.20;80.70;;;;;;10521965;28;20625;-79
2021/03/03 16:43:54;;;;;;;29.37;22.27;;;12.20;77.90;;;;;;10555453;28;20277;-79
2021/03/03 16:48:56;;;;;;;26.27;15.97;;;12.20;80.10;;;;;;10535276;28;20184;-80
2021/03/03 16:53:58;;;;;;;21.27;16.70;;;12.10;79.90;;;;;;10538965;28;20211;-78
2021/03/03 16:59:00;;;;;;;23.10;14.33;;;12.10;80.50;;;;;;10537830;28;20212;-78
2021/03/03 17:04:04;;;;;;;19.07;13.93;;;12.00;81.30;;;;;;10520121;28;20235;-78
2021/03/03 17:09:07;;;;;;;17.90;14.43;;;11.90;79.70;;;;;;10538066;28;20567;-78
2021/03/03 17:14:09;;;;;;;25.90;15.30;;;11.80;79.90;;;;;;10537858;28;20216;-78
2021/03/03 17:19:11;;;;;;;27.57;18.63;;;11.80;80.40;;;;;;10534723;28;20275;-78
2021/03/03 17:24:13;;;;;;;25.60;17.47;;;11.60;80.50;;;;;;10509372;28;20687;-78
2021/03/03 17:29:15;;;;;;;28.03;16.57;;;11.50;81.00;;;;;;10539356;28;20306;-78
2021/03/03 17:34:17;;;;;;;18.43;16.43;;;11.50;81.50;;;;;;10533750;28;20246;-78
2021/03/03 17:39:19;;;;;;;17.90;15.20;;;11.40;81.80;;;;;;10535515;28;20307;-79
2021/03/03 17:44:21;;;;;;;33.03;15.90;;;11.30;82.20;;;;;;10530320;28;20683;-78
2021/03/03 17:49:22;;;;;;;23.80;17.53;;;11.20;82.30;;;;;;10518782;28;20321;-78
2021/03/03 17:54:25;;;;;;;23.83;17.50;;;11.20;82.40;;;;;;10526480;28;20218;-78
2021/03/03 17:59:26;;;;;;;27.77;17.10;;;11.10;82.50;;;;;;10535950;28;20199;-78
2021/03/03 18:04:28;;;;;;;18.53;15.00;;;11.10;83.10;;;;;;10537691;28;20219;-78
2021/03/03 18:09:31;;;;;;;24.60;16.30;;;11.10;83.50;;;;;;10553078;28;20246;-78
2021/03/03 18:14:32;;;;;;;22.40;17.10;;;11.00;83.70;;;;;;10541663;28;20505;-78
2021/03/03 18:19:34;;;;;;;20.77;16.73;;;11.00;83.90;;;;;;10543035;28;20204;-79
2021/03/03 18:24:36;;;;;;;23.00;17.10;;;11.00;83.90;;;;;;10541117;28;20564;-78
2021/03/03 18:29:38;;;;;;;21.97;16.03;;;11.00;84.20;;;;;;10521134;28;20288;-78
2021/03/03 18:34:40;;;;;;;20.63;15.30;;;11.00;83.80;;;;;;10519464;28;20227;-78
2021/03/03 18:39:43;;;;;;;25.70;16.13;;;11.00;83.90;;;;;;10522852;28;20267;-78
2021/03/03 18:44:46;;;;;;;19.07;15.63;;;11.00;84.00;;;;;;10525558;28;20301;-78
2021/03/03 18:49:48;;;;;;;20.93;15.40;;;11.00;83.70;;;;;;10526274;28;20234;-78
2021/03/03 18:54:51;;;;;;;19.77;16.90;;;11.00;83.80;;;;;;10526334;28;20223;-78
2021/03/03 18:59:52;;;;;;;17.53;15.60;;;11.00;83.90;;;;;;10525422;28;20302;-78
2021/03/03 19:04:54;;;;;;;23.30;17.13;;;11.00;84.10;;;;;;10519148;28;20357;-78
2021/03/03 19:09:56;;;;;;;22.67;16.00;;;11.00;84.60;;;;;;10537347;28;20203;-78
2021/03/03 19:14:59;;;;;;;25.33;17.87;;;11.00;84.90;;;;;;10534964;28;20494;-77
2021/03/03 19:20:01;;;;;;;20.30;17.27;;;11.00;85.40;;;;;;10533985;28;20229;-78
2021/03/03 19:25:04;;;;;;;21.67;17.37;;;11.00;85.70;;;;;;10534240;28;20246;-77
2021/03/03 19:30:08;;;;;;;24.90;16.20;;;11.00;85.80;;;;;;10532730;28;20740;-77
2021/03/03 19:35:10;;;;;;;27.83;17.63;;;11.00;86.90;;;;;;10533030;28;20486;-77
2021/03/03 19:40:14;;;;;;;22.30;16.00;;;11.00;86.20;;;;;;10522861;28;20203;-78
2021/03/03 19:45:16;;;;;;;22.73;17.07;;;11.00;85.90;;;;;;10520551;28;20545;-77
2021/03/03 19:50:18;;;;;;;21.73;17.30;;;11.00;86.20;;;;;;10530326;28;20223;-77
2021/03/03 19:55:21;;;;;;;23.10;17.07;;;11.00;86.60;;;;;;10529772;28;20245;-78
2021/03/03 20:00:24;;;;;;;21.47;16.77;;;11.00;86.60;;;;;;10551029;28;20199;-77
2021/03/03 20:05:26;;;;;;;26.77;18.30;;;10.90;86.40;;;;;;10500961;22;20224;-81
2021/03/03 20:10:28;;;;;;;22.10;15.33;;;10.90;86.60;;;;;;10488554;28;20204;-81
2021/03/03 20:15:30;;;;;;;27.10;18.83;;;10.90;86.60;;;;;;10478131;28;20369;-81
2021/03/03 20:20:32;;;;;;;26.43;17.53;;;10.80;87.00;;;;;;10479215;28;20216;-81
2021/03/03 20:25:34;;;;;;;28.00;17.87;;;10.80;87.90;;;;;;10489104;28;20248;-81
2021/03/03 20:30:38;;;;;;;23.03;16.40;;;10.80;87.90;;;;;;10469305;28;20201;-81
2021/03/03 20:35:39;;;;;;;20.70;16.40;;;10.70;88.00;;;;;;10458714;28;20210;-81
2021/03/03 20:40:42;;;;;;;23.33;16.60;;;10.70;88.50;;;;;;10475399;28;20215;-81
2021/03/03 20:45:44;;;;;;;21.40;15.43;;;10.70;88.80;;;;;;10472340;28;20727;-81
2021/03/03 20:50:46;;;;;;;24.87;15.77;;;10.60;88.70;;;;;;10476693;28;20208;-81
2021/03/03 20:55:48;;;;;;;23.83;15.97;;;10.60;89.10;;;;;;10477202;28;20651;-81
2021/03/03 21:00:50;;;;;;;21.13;15.83;;;10.50;88.90;;;;;;10476313;28;20586;-81
2021/03/03 21:05:51;;;;;;;21.50;14.57;;;10.50;89.10;;;;;;10472477;28;20562;-81
2021/03/03 21:10:54;;;;;;;24.53;15.63;;;10.40;89.00;;;;;;10498017;28;20231;-81
2021/03/03 21:15:56;;;;;;;20.23;15.53;;;10.40;89.10;;;;;;10471419;28;20252;-81
2021/03/03 21:20:58;;;;;;;24.23;14.93;;;10.30;89.00;;;;;;10481972;28;20419;-81
2021/03/03 21:26:00;;;;;;;22.30;15.30;;;10.30;89.10;;;;;;10479951;28;20983;-81
2021/03/03 21:31:02;;;;;;;21.90;14.10;;;10.20;89.20;;;;;;10491855;28;20228;-81
2021/03/03 21:36:04;;;;;;;18.63;14.03;;;10.20;89.20;;;;;;10492507;28;20220;-81
2021/03/03 21:41:07;;;;;;;20.63;14.27;;;10.20;89.60;;;;;;10497481;28;20232;-81
2021/03/03 21:46:08;;;;;;;21.40;13.77;;;10.20;89.60;;;;;;10494632;28;20457;-81
2021/03/03 21:51:10;;;;;;;15.17;12.60;;;10.10;89.90;;;;;;10498685;28;20731;-81
2021/03/03 21:56:12;;;;;;;16.17;12.40;;;10.10;89.80;;;;;;10474518;28;20208;-82
2021/03/03 22:01:14;;;;;;;16.20;13.07;;;10.00;90.00;;;;;;10487446;28;20221;-81
2021/03/03 22:06:16;;;;;;;17.10;12.70;;;10.00;90.00;;;;;;10487963;28;20288;-81
2021/03/03 22:11:18;;;;;;;15.53;12.07;;;10.00;89.70;;;;;;10503081;28;20226;-82
2021/03/03 22:16:20;;;;;;;14.40;11.20;;;9.90;90.20;;;;;;10473189;28;20216;-82
2021/03/03 22:21:22;;;;;;;14.83;11.40;;;9.90;90.30;;;;;;10490633;28;20224;-83
2021/03/03 22:26:24;;;;;;;17.40;11.07;;;9.90;89.90;;;;;;10488228;28;20262;-80
2021/03/03 22:31:26;;;;;;;13.13;10.87;;;9.90;90.10;;;;;;10487901;28;20228;-83
2021/03/03 22:36:27;;;;;;;13.93;10.40;;;9.90;89.70;;;;;;10488645;28;21152;-81
2021/03/03 22:41:30;;;;;;;11.83;10.07;;;9.80;89.60;;;;;;10471655;28;20289;-81
2021/03/03 22:46:32;;;;;;;13.70;9.73;;;9.80;89.70;;;;;;10470021;28;20208;-82
2021/03/03 22:51:34;;;;;;;11.97;9.47;;;9.80;89.30;;;;;;10455930;28;20233;-80
2021/03/03 22:56:36;;;;;;;10.97;9.80;;;9.80;89.20;;;;;;10466634;28;20257;-81
2021/03/03 23:01:38;;;;;;;10.60;8.83;;;9.80;88.30;;;;;;10481418;28;20239;-81
2021/03/03 23:06:40;;;;;;;8.90;7.93;;;9.90;88.20;;;;;;10485690;28;20203;-80
2021/03/03 23:11:44;;;;;;;11.83;8.50;;;9.90;88.10;;;;;;10488540;28;20224;-80
2021/03/03 23:16:46;;;;;;;9.40;8.40;;;9.80;87.80;;;;;;10499203;28;20229;-79
2021/03/03 23:21:47;;;;;;;11.27;8.50;;;9.80;88.10;;;;;;10508148;28;20334;-79
2021/03/03 23:26:50;;;;;;;12.50;9.03;;;9.80;87.40;;;;;;10495725;28;20737;-79
2021/03/03 23:31:52;;;;;;;10.40;9.20;;;9.80;87.60;;;;;;10485438;28;20220;-79
2021/03/03 23:36:53;;;;;;;10.23;8.33;;;9.80;87.60;;;;;;10481312;28;20364;-80
2021/03/03 23:41:56;;;;;;;8.33;7.50;;;9.80;86.80;;;;;;10491571;28;20248;-79
2021/03/03 23:46:57;;;;;;;10.37;8.50;;;9.80;86.80;;;;;;10498504;28;20188;-80
2021/03/03 23:51:59;;;;;;;8.93;8.03;;;9.80;87.60;;;;;;10502344;28;20226;-80
2021/03/03 23:57:01;;;;;;;11.43;9.40;;;9.80;86.90;;;;;;10518250;28;20287;-80
